Terminal Aerodrome Forecast
Issued by NWS

Home | Current Version | Previous Version | Graphics & Text | Print | Product List | Glossary On
Versions: 1 2 3 4 5 6 7 8 9 10 11 12 13 14 15 16 17 18 19 20 21 22 23 24 25 26 27
000
FTUS43 KGRB 131900 AAA
TAFCWA
TAF AMD
KCWA 131900Z 1319/1418 01007KT 1 1/2SM -SN OVC017
     FM132000 04010KT 3SM -SN OVC012
     FM132200 02008KT P6SM OVC012
     FM140600 31004KT P6SM SCT025
     FM141200 26005KT P6SM BKN030=

USA.gov is the U.S. government's official web portal to all federal, state and local government web resources and services.